Greensboro, NC (27455)

1:40 PM EST on February 07, 2016 (GMT -0500)
Lake Jeannette North Greensboro NC | | Change Station
CLOSE
Current Station
Personal Weather Station
Location: Greensboro, NC
Elevation: 810 ft
Nearby Weather Stations

Elev 810 ft 36.15 °N, 79.81 °W | Updated 6 seconds ago

Overcast
Overcast
46.0 °F
Feels Like 44 °F
N
4.7
Wind Variable Wind from North

Today
High -- | Low -- °F
--% Chance of Precip.
Yesterday
High -- | Low -- °F
Precip. -- in
Pressure 30.03 in
Visibility 10.0 miles
Clouds Few 12000 ft
Mostly Cloudy 15000 ft
Overcast 25000 ft
Windchill 44 °F
Dew Point 23 °F
Humidity 40%
Rainfall 0.00 in
Snow Depth Not available.
7:15 AM 5:51 PM
Waning Crescent, 1% visible
METAR KGSO 071754Z 03010G17KT 10SM FEW120 BKN150 OVC250 07/M07 A3002 RMK AO2 SLP169 T00671072 10067 20011 58016
Pressure 30.03 in
Visibility 10.0 miles
Clouds Few 12000 ft
Mostly Cloudy 15000 ft
Overcast 25000 ft
Windchill 44 °F
Dew Point 23 °F
Humidity 40%
Rainfall 0.00 in
Snow Depth Not available.
7:15 AM 5:51 PM
Waning Crescent, 1% visible
METAR KGSO 071754Z 03010G17KT 10SM FEW120 BKN150 OVC250 07/M07 A3002 RMK AO2 SLP169 T00671072 10067 20011 58016

10-Day Weather Forecast

Almanac

Astronomy

Feb. 07, 2016 Rise Set
Actual Time
Civil Twilight
Nautical Twilight
Astronomical Twilight
Moon
Length of Visible Light
Length of Day
Tomorrow will be .
, % of the Moon is Illuminated

Today's Extremes

State Highs State Lows

Community

WunderPhotos

Upload Photos

1,891,280 photos uploaded!

WunderBlog® & News

Nearby

Air Quality

  Air Quality AQ Index Pollutant
Not available.

Snow Depth

Station Depth Elevation

Earthquake Activity

City Distance Mag. Time & Date
Minimum magnitude displayed is 2.5.

Coastal Water Temperatures

Place Temperature

Stations

Nearby Weather Stations

Station Location Temp. Windchill Dew Point Humidity Wind Precip. Elev Updated Type
                   

Watches & Warnings

There are currently no watches in effect.